sensor_id;sensor_type;location;lat;lon;timestamp;P1;durP1;ratioP1;P2;durP2;ratioP2
52934;SDS011;38802;50.198;19.796;2022-11-20T00:01:32;77.60;;;42.00;;
52934;SDS011;38802;50.198;19.796;2022-11-20T00:04:01;85.50;;;41.90;;
52934;SDS011;38802;50.198;19.796;2022-11-20T00:06:29;87.70;;;42.90;;
52934;SDS011;38802;50.198;19.796;2022-11-20T00:08:58;88.90;;;42.30;;
52934;SDS011;38802;50.198;19.796;2022-11-20T00:11:28;84.80;;;41.10;;
52934;SDS011;38802;50.198;19.796;2022-11-20T00:13:59;76.90;;;42.90;;
52934;SDS011;38802;50.198;19.796;2022-11-20T00:16:29;96.70;;;44.90;;
52934;SDS011;38802;50.198;19.796;2022-11-20T00:18:59;79.20;;;40.80;;
52934;SDS011;38802;50.198;19.796;2022-11-20T00:21:28;85.30;;;43.20;;
52934;SDS011;38802;50.198;19.796;2022-11-20T00:23:58;89.10;;;45.00;;
52934;SDS011;38802;50.198;19.796;2022-11-20T00:26:27;110.90;;;50.50;;
52934;SDS011;38802;50.198;19.796;2022-11-20T00:28:57;79.10;;;43.30;;
52934;SDS011;38802;50.198;19.796;2022-11-20T00:31:28;101.00;;;48.00;;
52934;SDS011;38802;50.198;19.796;2022-11-20T00:33:57;93.90;;;46.90;;
52934;SDS011;38802;50.198;19.796;2022-11-20T00:36:25;104.10;;;49.60;;
52934;SDS011;38802;50.198;19.796;2022-11-20T00:38:56;83.40;;;43.50;;
52934;SDS011;38802;50.198;19.796;2022-11-20T00:41:25;82.70;;;44.30;;
52934;SDS011;38802;50.198;19.796;2022-11-20T00:43:56;91.20;;;47.60;;
52934;SDS011;38802;50.198;19.796;2022-11-20T00:46:25;95.70;;;46.00;;
52934;SDS011;38802;50.198;19.796;2022-11-20T00:48:55;78.50;;;40.90;;
52934;SDS011;38802;50.198;19.796;2022-11-20T00:51:25;89.00;;;45.20;;
52934;SDS011;38802;50.198;19.796;2022-11-20T00:53:55;82.70;;;43.80;;
52934;SDS011;38802;50.198;19.796;2022-11-20T00:56:24;84.40;;;42.50;;
52934;SDS011;38802;50.198;19.796;2022-11-20T00:58:52;88.40;;;43.90;;
52934;SDS011;38802;50.198;19.796;2022-11-20T01:01:21;89.90;;;43.40;;
52934;SDS011;38802;50.198;19.796;2022-11-20T01:03:57;76.30;;;39.30;;
52934;SDS011;38802;50.198;19.796;2022-11-20T01:06:28;84.00;;;41.00;;
52934;SDS011;38802;50.198;19.796;2022-11-20T01:09:00;71.70;;;39.00;;
52934;SDS011;38802;50.198;19.796;2022-11-20T01:11:32;88.20;;;43.00;;
52934;SDS011;38802;50.198;19.796;2022-11-20T01:14:02;77.70;;;39.40;;
52934;SDS011;38802;50.198;19.796;2022-11-20T01:16:33;81.10;;;41.20;;
52934;SDS011;38802;50.198;19.796;2022-11-20T01:19:04;66.20;;;38.20;;
52934;SDS011;38802;50.198;19.796;2022-11-20T01:21:35;73.30;;;40.50;;
52934;SDS011;38802;50.198;19.796;2022-11-20T01:24:06;66.90;;;34.40;;
52934;SDS011;38802;50.198;19.796;2022-11-20T01:26:37;60.90;;;33.10;;
52934;SDS011;38802;50.198;19.796;2022-11-20T01:29:07;63.40;;;33.80;;
52934;SDS011;38802;50.198;19.796;2022-11-20T01:31:38;71.20;;;35.20;;
52934;SDS011;38802;50.198;19.796;2022-11-20T01:34:07;58.30;;;32.90;;
52934;SDS011;38802;50.198;19.796;2022-11-20T01:36:40;63.00;;;33.90;;
52934;SDS011;38802;50.198;19.796;2022-11-20T01:39:13;61.40;;;33.20;;
52934;SDS011;38802;50.198;19.796;2022-11-20T01:41:52;59.30;;;29.60;;
52934;SDS011;38802;50.198;19.796;2022-11-20T01:44:54;57.90;;;29.70;;
52934;SDS011;38802;50.198;19.796;2022-11-20T01:50:04;52.20;;;30.90;;
52934;SDS011;38802;50.198;19.796;2022-11-20T01:52:52;57.50;;;31.40;;
52934;SDS011;38802;50.198;19.796;2022-11-20T01:55:25;55.20;;;33.10;;
52934;SDS011;38802;50.198;19.796;2022-11-20T01:57:57;61.10;;;34.60;;
52934;SDS011;38802;50.198;19.796;2022-11-20T02:00:26;59.80;;;33.20;;
52934;SDS011;38802;50.198;19.796;2022-11-20T02:02:58;66.70;;;32.70;;
52934;SDS011;38802;50.198;19.796;2022-11-20T02:08:02;65.00;;;31.80;;
52934;SDS011;38802;50.198;19.796;2022-11-20T02:10:32;61.60;;;31.90;;
52934;SDS011;38802;50.198;19.796;2022-11-20T02:13:01;67.20;;;34.70;;
52934;SDS011;38802;50.198;19.796;2022-11-20T02:15:49;79.50;;;37.20;;
52934;SDS011;38802;50.198;19.796;2022-11-20T02:18:18;79.40;;;39.50;;
52934;SDS011;38802;50.198;19.796;2022-11-20T02:20:49;85.90;;;38.50;;
52934;SDS011;38802;50.198;19.796;2022-11-20T02:25:58;84.50;;;38.50;;
52934;SDS011;38802;50.198;19.796;2022-11-20T02:28:30;75.60;;;38.50;;
52934;SDS011;38802;50.198;19.796;2022-11-20T02:30:59;85.70;;;42.10;;
52934;SDS011;38802;50.198;19.796;2022-11-20T02:33:28;76.90;;;37.40;;
52934;SDS011;38802;50.198;19.796;2022-11-20T02:35:56;72.60;;;37.10;;
52934;SDS011;38802;50.198;19.796;2022-11-20T02:38:24;70.50;;;36.30;;
52934;SDS011;38802;50.198;19.796;2022-11-20T02:40:52;75.50;;;37.50;;
52934;SDS011;38802;50.198;19.796;2022-11-20T02:43:22;78.90;;;40.30;;
52934;SDS011;38802;50.198;19.796;2022-11-20T02:45:51;77.90;;;38.50;;
52934;SDS011;38802;50.198;19.796;2022-11-20T02:48:19;86.20;;;42.90;;
52934;SDS011;38802;50.198;19.796;2022-11-20T02:50:47;71.90;;;37.40;;
52934;SDS011;38802;50.198;19.796;2022-11-20T02:53:15;70.20;;;36.70;;
52934;SDS011;38802;50.198;19.796;2022-11-20T02:55:43;73.50;;;37.60;;
52934;SDS011;38802;50.198;19.796;2022-11-20T02:58:11;67.80;;;34.40;;
52934;SDS011;38802;50.198;19.796;2022-11-20T03:00:39;66.50;;;34.20;;
52934;SDS011;38802;50.198;19.796;2022-11-20T03:03:07;68.70;;;36.60;;
52934;SDS011;38802;50.198;19.796;2022-11-20T03:05:35;64.60;;;32.40;;
52934;SDS011;38802;50.198;19.796;2022-11-20T03:08:03;53.60;;;31.10;;
52934;SDS011;38802;50.198;19.796;2022-11-20T03:10:32;58.80;;;31.90;;
52934;SDS011;38802;50.198;19.796;2022-11-20T03:13:00;66.80;;;35.80;;
52934;SDS011;38802;50.198;19.796;2022-11-20T03:15:30;72.40;;;35.50;;
52934;SDS011;38802;50.198;19.796;2022-11-20T03:17:58;58.40;;;32.60;;
52934;SDS011;38802;50.198;19.796;2022-11-20T03:20:26;62.70;;;34.00;;
52934;SDS011;38802;50.198;19.796;2022-11-20T03:22:54;64.40;;;33.20;;
52934;SDS011;38802;50.198;19.796;2022-11-20T03:25:23;65.60;;;33.60;;
52934;SDS011;38802;50.198;19.796;2022-11-20T03:27:51;54.10;;;29.90;;
52934;SDS011;38802;50.198;19.796;2022-11-20T03:30:19;52.70;;;30.70;;
52934;SDS011;38802;50.198;19.796;2022-11-20T03:32:53;48.90;;;28.10;;
52934;SDS011;38802;50.198;19.796;2022-11-20T03:35:21;46.10;;;28.00;;
52934;SDS011;38802;50.198;19.796;2022-11-20T03:37:51;54.60;;;28.90;;
52934;SDS011;38802;50.198;19.796;2022-11-20T03:40:19;57.70;;;32.20;;
52934;SDS011;38802;50.198;19.796;2022-11-20T03:42:47;52.70;;;27.80;;
52934;SDS011;38802;50.198;19.796;2022-11-20T03:45:15;47.00;;;27.40;;
52934;SDS011;38802;50.198;19.796;2022-11-20T03:47:45;50.50;;;27.70;;
52934;SDS011;38802;50.198;19.796;2022-11-20T03:50:13;46.20;;;25.00;;
52934;SDS011;38802;50.198;19.796;2022-11-20T03:52:42;48.70;;;26.90;;
52934;SDS011;38802;50.198;19.796;2022-11-20T03:55:10;44.60;;;25.50;;
52934;SDS011;38802;50.198;19.796;2022-11-20T03:57:38;48.80;;;23.00;;
52934;SDS011;38802;50.198;19.796;2022-11-20T04:00:07;39.40;;;23.90;;
52934;SDS011;38802;50.198;19.796;2022-11-20T04:02:35;37.80;;;23.40;;
52934;SDS011;38802;50.198;19.796;2022-11-20T04:05:03;41.00;;;26.00;;
52934;SDS011;38802;50.198;19.796;2022-11-20T04:07:33;35.70;;;21.70;;
52934;SDS011;38802;50.198;19.796;2022-11-20T04:10:01;36.40;;;21.90;;
52934;SDS011;38802;50.198;19.796;2022-11-20T04:12:33;32.20;;;21.00;;
52934;SDS011;38802;50.198;19.796;2022-11-20T04:15:01;38.30;;;22.80;;
52934;SDS011;38802;50.198;19.796;2022-11-20T04:17:29;34.50;;;22.30;;
52934;SDS011;38802;50.198;19.796;2022-11-20T04:19:58;33.10;;;22.30;;
52934;SDS011;38802;50.198;19.796;2022-11-20T04:22:27;30.10;;;21.10;;
52934;SDS011;38802;50.198;19.796;2022-11-20T04:24:55;36.10;;;20.60;;
52934;SDS011;38802;50.198;19.796;2022-11-20T04:27:23;30.70;;;20.30;;
52934;SDS011;38802;50.198;19.796;2022-11-20T04:29:51;37.50;;;22.80;;
52934;SDS011;38802;50.198;19.796;2022-11-20T04:32:19;32.30;;;20.10;;
52934;SDS011;38802;50.198;19.796;2022-11-20T04:34:47;35.40;;;22.30;;
52934;SDS011;38802;50.198;19.796;2022-11-20T04:37:15;36.40;;;22.20;;
52934;SDS011;38802;50.198;19.796;2022-11-20T04:39:43;34.30;;;22.30;;
52934;SDS011;38802;50.198;19.796;2022-11-20T04:42:11;31.20;;;20.20;;
52934;SDS011;38802;50.198;19.796;2022-11-20T04:44:58;35.40;;;21.40;;
52934;SDS011;38802;50.198;19.796;2022-11-20T04:47:26;38.10;;;22.10;;
52934;SDS011;38802;50.198;19.796;2022-11-20T04:49:54;34.20;;;21.70;;
52934;SDS011;38802;50.198;19.796;2022-11-20T04:52:22;39.50;;;23.30;;
52934;SDS011;38802;50.198;19.796;2022-11-20T04:54:50;33.90;;;21.20;;
52934;SDS011;38802;50.198;19.796;2022-11-20T04:57:20;35.30;;;23.20;;
52934;SDS011;38802;50.198;19.796;2022-11-20T04:59:49;29.50;;;19.50;;
52934;SDS011;38802;50.198;19.796;2022-11-20T05:02:17;35.20;;;21.10;;
52934;SDS011;38802;50.198;19.796;2022-11-20T05:04:45;33.60;;;21.90;;
52934;SDS011;38802;50.198;19.796;2022-11-20T05:07:14;42.00;;;23.00;;
52934;SDS011;38802;50.198;19.796;2022-11-20T05:09:42;41.40;;;23.70;;
52934;SDS011;38802;50.198;19.796;2022-11-20T05:12:10;36.80;;;24.00;;
52934;SDS011;38802;50.198;19.796;2022-11-20T05:14:38;35.10;;;23.10;;
52934;SDS011;38802;50.198;19.796;2022-11-20T05:17:09;33.00;;;21.10;;
52934;SDS011;38802;50.198;19.796;2022-11-20T05:19:38;38.60;;;22.70;;
52934;SDS011;38802;50.198;19.796;2022-11-20T05:22:06;44.50;;;21.40;;
52934;SDS011;38802;50.198;19.796;2022-11-20T05:24:34;32.30;;;21.90;;
52934;SDS011;38802;50.198;19.796;2022-11-20T05:27:02;40.00;;;24.90;;
52934;SDS011;38802;50.198;19.796;2022-11-20T05:29:30;39.30;;;22.20;;
52934;SDS011;38802;50.198;19.796;2022-11-20T05:31:58;36.90;;;23.20;;
52934;SDS011;38802;50.198;19.796;2022-11-20T05:34:26;45.90;;;24.40;;
52934;SDS011;38802;50.198;19.796;2022-11-20T05:36:55;36.10;;;22.00;;
52934;SDS011;38802;50.198;19.796;2022-11-20T05:39:23;40.30;;;21.80;;
52934;SDS011;38802;50.198;19.796;2022-11-20T05:41:51;37.00;;;23.20;;
52934;SDS011;38802;50.198;19.796;2022-11-20T05:44:39;37.20;;;23.30;;
52934;SDS011;38802;50.198;19.796;2022-11-20T05:47:08;45.80;;;24.80;;
52934;SDS011;38802;50.198;19.796;2022-11-20T05:49:36;35.80;;;24.00;;
52934;SDS011;38802;50.198;19.796;2022-11-20T05:52:04;43.10;;;24.00;;
52934;SDS011;38802;50.198;19.796;2022-11-20T05:54:32;42.80;;;25.20;;
52934;SDS011;38802;50.198;19.796;2022-11-20T05:57:00;35.40;;;23.60;;
52934;SDS011;38802;50.198;19.796;2022-11-20T05:59:28;36.90;;;22.50;;
52934;SDS011;38802;50.198;19.796;2022-11-20T06:01:56;45.50;;;24.30;;
52934;SDS011;38802;50.198;19.796;2022-11-20T06:04:24;40.70;;;23.30;;
52934;SDS011;38802;50.198;19.796;2022-11-20T06:06:52;33.00;;;21.70;;
52934;SDS011;38802;50.198;19.796;2022-11-20T06:09:21;36.90;;;22.70;;
52934;SDS011;38802;50.198;19.796;2022-11-20T06:11:49;38.30;;;23.20;;
52934;SDS011;38802;50.198;19.796;2022-11-20T06:14:17;32.20;;;20.90;;
52934;SDS011;38802;50.198;19.796;2022-11-20T06:16:45;33.00;;;22.00;;
52934;SDS011;38802;50.198;19.796;2022-11-20T06:19:14;36.40;;;21.90;;
52934;SDS011;38802;50.198;19.796;2022-11-20T06:21:42;39.10;;;22.60;;
52934;SDS011;38802;50.198;19.796;2022-11-20T06:24:11;34.10;;;20.60;;
52934;SDS011;38802;50.198;19.796;2022-11-20T06:26:39;34.50;;;20.70;;
52934;SDS011;38802;50.198;19.796;2022-11-20T06:29:07;36.00;;;21.20;;
52934;SDS011;38802;50.198;19.796;2022-11-20T06:31:36;39.20;;;22.90;;
52934;SDS011;38802;50.198;19.796;2022-11-20T06:34:05;43.20;;;24.90;;
52934;SDS011;38802;50.198;19.796;2022-11-20T06:36:34;37.40;;;24.10;;
52934;SDS011;38802;50.198;19.796;2022-11-20T06:39:02;38.30;;;23.40;;
52934;SDS011;38802;50.198;19.796;2022-11-20T06:41:31;39.20;;;23.70;;
52934;SDS011;38802;50.198;19.796;2022-11-20T06:43:59;36.80;;;21.70;;
52934;SDS011;38802;50.198;19.796;2022-11-20T06:46:27;42.60;;;24.80;;
52934;SDS011;38802;50.198;19.796;2022-11-20T06:48:56;42.40;;;25.90;;
52934;SDS011;38802;50.198;19.796;2022-11-20T06:51:24;51.00;;;29.30;;
52934;SDS011;38802;50.198;19.796;2022-11-20T06:53:52;49.90;;;27.60;;
52934;SDS011;38802;50.198;19.796;2022-11-20T06:56:21;50.10;;;28.70;;
52934;SDS011;38802;50.198;19.796;2022-11-20T06:58:49;66.00;;;38.40;;
52934;SDS011;38802;50.198;19.796;2022-11-20T07:01:17;71.30;;;38.50;;
52934;SDS011;38802;50.198;19.796;2022-11-20T07:03:45;79.70;;;40.70;;
52934;SDS011;38802;50.198;19.796;2022-11-20T07:06:21;77.70;;;42.60;;
52934;SDS011;38802;50.198;19.796;2022-11-20T07:08:52;80.20;;;42.40;;
52934;SDS011;38802;50.198;19.796;2022-11-20T07:11:20;71.00;;;40.60;;
52934;SDS011;38802;50.198;19.796;2022-11-20T07:13:48;69.00;;;40.60;;
52934;SDS011;38802;50.198;19.796;2022-11-20T07:16:17;67.70;;;40.40;;
52934;SDS011;38802;50.198;19.796;2022-11-20T07:18:45;71.20;;;37.10;;
52934;SDS011;38802;50.198;19.796;2022-11-20T07:21:18;66.00;;;35.90;;
52934;SDS011;38802;50.198;19.796;2022-11-20T07:23:46;62.40;;;33.40;;
52934;SDS011;38802;50.198;19.796;2022-11-20T07:26:14;63.40;;;33.90;;
52934;SDS011;38802;50.198;19.796;2022-11-20T07:28:45;54.50;;;31.50;;
52934;SDS011;38802;50.198;19.796;2022-11-20T07:31:13;59.20;;;30.20;;
52934;SDS011;38802;50.198;19.796;2022-11-20T07:33:46;56.80;;;33.20;;
52934;SDS011;38802;50.198;19.796;2022-11-20T07:36:14;48.60;;;28.90;;
52934;SDS011;38802;50.198;19.796;2022-11-20T07:38:42;41.20;;;27.20;;
52934;SDS011;38802;50.198;19.796;2022-11-20T07:41:10;46.70;;;29.70;;
52934;SDS011;38802;50.198;19.796;2022-11-20T07:43:38;49.20;;;29.30;;
52934;SDS011;38802;50.198;19.796;2022-11-20T07:46:08;47.10;;;27.50;;
52934;SDS011;38802;50.198;19.796;2022-11-20T07:48:36;45.40;;;27.70;;
52934;SDS011;38802;50.198;19.796;2022-11-20T07:51:04;49.20;;;28.20;;
52934;SDS011;38802;50.198;19.796;2022-11-20T07:53:33;47.50;;;27.00;;
52934;SDS011;38802;50.198;19.796;2022-11-20T07:56:01;49.60;;;27.30;;
52934;SDS011;38802;50.198;19.796;2022-11-20T07:58:31;56.60;;;28.90;;
52934;SDS011;38802;50.198;19.796;2022-11-20T08:01:04;56.10;;;30.90;;
52934;SDS011;38802;50.198;19.796;2022-11-20T08:03:33;43.70;;;24.40;;
52934;SDS011;38802;50.198;19.796;2022-11-20T08:06:02;33.60;;;22.40;;
52934;SDS011;38802;50.198;19.796;2022-11-20T08:08:31;33.30;;;21.80;;
52934;SDS011;38802;50.198;19.796;2022-11-20T08:11:01;38.50;;;23.60;;
52934;SDS011;38802;50.198;19.796;2022-11-20T08:13:47;34.80;;;21.50;;
52934;SDS011;38802;50.198;19.796;2022-11-20T08:19:02;41.70;;;22.40;;
52934;SDS011;38802;50.198;19.796;2022-11-20T08:21:30;31.30;;;21.20;;
52934;SDS011;38802;50.198;19.796;2022-11-20T08:24:05;47.50;;;27.90;;
52934;SDS011;38802;50.198;19.796;2022-11-20T08:26:34;60.60;;;33.10;;
52934;SDS011;38802;50.198;19.796;2022-11-20T08:29:02;56.10;;;31.60;;
52934;SDS011;38802;50.198;19.796;2022-11-20T08:31:32;62.70;;;34.50;;
52934;SDS011;38802;50.198;19.796;2022-11-20T08:34:21;38.80;;;21.70;;
52934;SDS011;38802;50.198;19.796;2022-11-20T08:36:49;36.50;;;23.40;;
52934;SDS011;38802;50.198;19.796;2022-11-20T08:39:17;39.30;;;24.30;;
52934;SDS011;38802;50.198;19.796;2022-11-20T08:41:45;38.60;;;22.90;;
52934;SDS011;38802;50.198;19.796;2022-11-20T08:44:13;39.70;;;21.70;;
52934;SDS011;38802;50.198;19.796;2022-11-20T08:46:41;35.50;;;21.40;;
52934;SDS011;38802;50.198;19.796;2022-11-20T08:49:11;31.40;;;19.90;;
52934;SDS011;38802;50.198;19.796;2022-11-20T08:51:41;31.20;;;19.30;;
52934;SDS011;38802;50.198;19.796;2022-11-20T08:54:10;35.60;;;22.00;;
52934;SDS011;38802;50.198;19.796;2022-11-20T08:56:39;30.60;;;19.30;;
52934;SDS011;38802;50.198;19.796;2022-11-20T08:59:07;39.30;;;21.60;;
52934;SDS011;38802;50.198;19.796;2022-11-20T09:01:55;27.60;;;20.70;;
52934;SDS011;38802;50.198;19.796;2022-11-20T09:04:23;32.10;;;20.60;;
52934;SDS011;38802;50.198;19.796;2022-11-20T09:06:51;31.50;;;20.00;;
52934;SDS011;38802;50.198;19.796;2022-11-20T09:09:19;37.90;;;22.90;;
52934;SDS011;38802;50.198;19.796;2022-11-20T09:11:48;42.80;;;24.40;;
52934;SDS011;38802;50.198;19.796;2022-11-20T09:14:17;44.20;;;25.40;;
52934;SDS011;38802;50.198;19.796;2022-11-20T09:16:45;50.70;;;25.80;;
52934;SDS011;38802;50.198;19.796;2022-11-20T09:19:14;44.10;;;25.50;;
52934;SDS011;38802;50.198;19.796;2022-11-20T09:22:02;45.70;;;24.30;;
52934;SDS011;38802;50.198;19.796;2022-11-20T09:24:30;43.70;;;24.70;;
52934;SDS011;38802;50.198;19.796;2022-11-20T09:27:01;46.10;;;26.10;;
52934;SDS011;38802;50.198;19.796;2022-11-20T09:29:30;46.20;;;26.00;;
52934;SDS011;38802;50.198;19.796;2022-11-20T09:31:58;43.10;;;25.10;;
52934;SDS011;38802;50.198;19.796;2022-11-20T09:34:26;47.70;;;27.10;;
52934;SDS011;38802;50.198;19.796;2022-11-20T09:36:54;47.70;;;26.70;;
52934;SDS011;38802;50.198;19.796;2022-11-20T09:39:22;31.50;;;19.30;;
52934;SDS011;38802;50.198;19.796;2022-11-20T09:48:04;43.30;;;24.60;;
52934;SDS011;38802;50.198;19.796;2022-11-20T09:51:00;43.40;;;23.10;;
52934;SDS011;38802;50.198;19.796;2022-11-20T09:56:18;44.90;;;27.20;;
52934;SDS011;38802;50.198;19.796;2022-11-20T09:58:50;53.40;;;27.80;;
52934;SDS011;38802;50.198;19.796;2022-11-20T10:01:23;46.70;;;25.10;;
52934;SDS011;38802;50.198;19.796;2022-11-20T10:04:03;49.10;;;26.50;;
52934;SDS011;38802;50.198;19.796;2022-11-20T10:06:33;48.20;;;26.70;;
52934;SDS011;38802;50.198;19.796;2022-11-20T10:14:45;50.90;;;29.20;;
52934;SDS011;38802;50.198;19.796;2022-11-20T10:17:29;51.90;;;29.90;;
52934;SDS011;38802;50.198;19.796;2022-11-20T10:31:49;58.80;;;30.70;;
52934;SDS011;38802;50.198;19.796;2022-11-20T10:34:30;43.10;;;25.20;;
52934;SDS011;38802;50.198;19.796;2022-11-20T10:37:06;44.20;;;25.50;;
52934;SDS011;38802;50.198;19.796;2022-11-20T10:45:02;62.90;;;32.10;;
52934;SDS011;38802;50.198;19.796;2022-11-20T10:47:43;58.50;;;31.10;;
52934;SDS011;38802;50.198;19.796;2022-11-20T10:50:14;60.30;;;33.20;;
52934;SDS011;38802;50.198;19.796;2022-11-20T10:52:56;56.30;;;31.60;;
52934;SDS011;38802;50.198;19.796;2022-11-20T10:55:30;60.60;;;31.80;;
52934;SDS011;38802;50.198;19.796;2022-11-20T10:58:10;67.70;;;36.30;;
52934;SDS011;38802;50.198;19.796;2022-11-20T11:00:42;66.30;;;35.80;;
52934;SDS011;38802;50.198;19.796;2022-11-20T11:03:29;68.30;;;35.70;;
52934;SDS011;38802;50.198;19.796;2022-11-20T11:08:38;63.70;;;33.80;;
52934;SDS011;38802;50.198;19.796;2022-11-20T11:11:18;75.30;;;36.20;;
52934;SDS011;38802;50.198;19.796;2022-11-20T11:13:52;71.90;;;36.90;;
52934;SDS011;38802;50.198;19.796;2022-11-20T11:16:26;66.70;;;34.70;;
52934;SDS011;38802;50.198;19.796;2022-11-20T11:19:11;80.60;;;40.50;;
52934;SDS011;38802;50.198;19.796;2022-11-20T11:21:49;86.60;;;39.80;;
52934;SDS011;38802;50.198;19.796;2022-11-20T11:24:27;84.60;;;42.00;;
52934;SDS011;38802;50.198;19.796;2022-11-20T11:27:13;81.90;;;44.40;;
52934;SDS011;38802;50.198;19.796;2022-11-20T11:29:46;84.40;;;44.50;;
52934;SDS011;38802;50.198;19.796;2022-11-20T11:32:15;95.70;;;44.50;;
52934;SDS011;38802;50.198;19.796;2022-11-20T11:35:04;87.20;;;41.20;;
52934;SDS011;38802;50.198;19.796;2022-11-20T11:37:35;81.00;;;40.00;;
52934;SDS011;38802;50.198;19.796;2022-11-20T11:40:05;93.20;;;44.30;;
52934;SDS011;38802;50.198;19.796;2022-11-20T11:42:57;76.00;;;40.70;;
52934;SDS011;38802;50.198;19.796;2022-11-20T11:45:28;96.50;;;44.60;;
52934;SDS011;38802;50.198;19.796;2022-11-20T11:47:58;99.20;;;47.00;;
52934;SDS011;38802;50.198;19.796;2022-11-20T11:50:31;98.50;;;43.20;;
52934;SDS011;38802;50.198;19.796;2022-11-20T11:53:05;94.20;;;43.40;;
52934;SDS011;38802;50.198;19.796;2022-11-20T11:55:56;78.70;;;38.80;;
52934;SDS011;38802;50.198;19.796;2022-11-20T11:58:43;74.80;;;35.20;;
52934;SDS011;38802;50.198;19.796;2022-11-20T12:07:25;58.40;;;31.20;;
52934;SDS011;38802;50.198;19.796;2022-11-20T12:10:22;60.90;;;32.50;;
52934;SDS011;38802;50.198;19.796;2022-11-20T12:13:04;61.90;;;33.80;;
52934;SDS011;38802;50.198;19.796;2022-11-20T12:15:44;57.30;;;28.40;;
52934;SDS011;38802;50.198;19.796;2022-11-20T12:18:15;51.90;;;28.70;;
52934;SDS011;38802;50.198;19.796;2022-11-20T12:21:08;59.20;;;31.30;;
52934;SDS011;38802;50.198;19.796;2022-11-20T12:32:26;54.70;;;29.80;;
52934;SDS011;38802;50.198;19.796;2022-11-20T12:48:09;60.40;;;30.70;;
52934;SDS011;38802;50.198;19.796;2022-11-20T12:55:34;58.30;;;29.00;;
52934;SDS011;38802;50.198;19.796;2022-11-20T13:00:50;53.70;;;26.50;;
52934;SDS011;38802;50.198;19.796;2022-11-20T13:04:03;52.80;;;27.10;;
52934;SDS011;38802;50.198;19.796;2022-11-20T13:06:23;50.70;;;27.70;;
52934;SDS011;38802;50.198;19.796;2022-11-20T13:08:54;56.90;;;29.50;;
52934;SDS011;38802;50.198;19.796;2022-11-20T13:19:33;45.90;;;26.10;;
52934;SDS011;38802;50.198;19.796;2022-11-20T13:22:02;49.10;;;27.20;;
52934;SDS011;38802;50.198;19.796;2022-11-20T13:24:31;50.40;;;26.90;;
52934;SDS011;38802;50.198;19.796;2022-11-20T13:29:42;60.50;;;30.30;;
52934;SDS011;38802;50.198;19.796;2022-11-20T13:34:51;56.50;;;31.10;;
52934;SDS011;38802;50.198;19.796;2022-11-20T13:37:26;66.30;;;34.20;;
52934;SDS011;38802;50.198;19.796;2022-11-20T13:40:32;106.70;;;50.60;;
52934;SDS011;38802;50.198;19.796;2022-11-20T13:42:56;83.90;;;37.00;;
52934;SDS011;38802;50.198;19.796;2022-11-20T13:45:26;76.60;;;37.10;;
52934;SDS011;38802;50.198;19.796;2022-11-20T13:47:57;68.30;;;36.70;;
52934;SDS011;38802;50.198;19.796;2022-11-20T13:55:42;72.60;;;35.70;;
52934;SDS011;38802;50.198;19.796;2022-11-20T14:01:23;82.10;;;40.80;;
52934;SDS011;38802;50.198;19.796;2022-11-20T14:03:52;75.40;;;37.80;;
52934;SDS011;38802;50.198;19.796;2022-11-20T14:06:43;76.60;;;39.90;;
52934;SDS011;38802;50.198;19.796;2022-11-20T14:09:28;89.40;;;44.70;;
52934;SDS011;38802;50.198;19.796;2022-11-20T14:11:58;74.60;;;40.10;;
52934;SDS011;38802;50.198;19.796;2022-11-20T14:14:27;83.30;;;40.40;;
52934;SDS011;38802;50.198;19.796;2022-11-20T14:17:05;91.70;;;44.20;;
52934;SDS011;38802;50.198;19.796;2022-11-20T14:19:34;88.30;;;44.10;;
52934;SDS011;38802;50.198;19.796;2022-11-20T14:22:09;92.70;;;44.20;;
52934;SDS011;38802;50.198;19.796;2022-11-20T14:27:56;91.10;;;42.50;;
52934;SDS011;38802;50.198;19.796;2022-11-20T14:30:27;92.60;;;45.60;;
52934;SDS011;38802;50.198;19.796;2022-11-20T14:33:03;95.80;;;46.20;;
52934;SDS011;38802;50.198;19.796;2022-11-20T14:35:35;94.10;;;45.10;;
52934;SDS011;38802;50.198;19.796;2022-11-20T14:38:09;90.10;;;45.90;;
52934;SDS011;38802;50.198;19.796;2022-11-20T14:40:41;91.80;;;46.80;;
52934;SDS011;38802;50.198;19.796;2022-11-20T14:43:23;97.90;;;50.80;;
52934;SDS011;38802;50.198;19.796;2022-11-20T14:46:07;101.10;;;49.80;;
52934;SDS011;38802;50.198;19.796;2022-11-20T14:48:44;96.90;;;47.40;;
52934;SDS011;38802;50.198;19.796;2022-11-20T14:56:39;101.70;;;49.10;;
52934;SDS011;38802;50.198;19.796;2022-11-20T14:59:08;95.30;;;46.10;;
52934;SDS011;38802;50.198;19.796;2022-11-20T15:01:37;82.50;;;40.60;;
52934;SDS011;38802;50.198;19.796;2022-11-20T15:06:36;111.40;;;53.80;;
52934;SDS011;38802;50.198;19.796;2022-11-20T15:09:12;108.20;;;54.90;;
52934;SDS011;38802;50.198;19.796;2022-11-20T15:14:27;113.20;;;54.30;;
52934;SDS011;38802;50.198;19.796;2022-11-20T15:16:56;104.50;;;48.70;;
52934;SDS011;38802;50.198;19.796;2022-11-20T15:19:25;114.40;;;53.00;;
52934;SDS011;38802;50.198;19.796;2022-11-20T15:21:54;116.80;;;52.70;;
52934;SDS011;38802;50.198;19.796;2022-11-20T15:24:22;105.70;;;52.70;;
52934;SDS011;38802;50.198;19.796;2022-11-20T15:26:51;107.30;;;51.10;;
52934;SDS011;38802;50.198;19.796;2022-11-20T15:29:19;115.00;;;56.30;;
52934;SDS011;38802;50.198;19.796;2022-11-20T15:31:50;117.50;;;57.50;;
52934;SDS011;38802;50.198;19.796;2022-11-20T15:34:20;112.50;;;53.50;;
52934;SDS011;38802;50.198;19.796;2022-11-20T15:36:48;131.00;;;61.70;;
52934;SDS011;38802;50.198;19.796;2022-11-20T15:39:17;124.60;;;59.50;;
52934;SDS011;38802;50.198;19.796;2022-11-20T15:41:45;140.70;;;69.00;;
52934;SDS011;38802;50.198;19.796;2022-11-20T15:44:14;112.30;;;57.10;;
52934;SDS011;38802;50.198;19.796;2022-11-20T15:46:42;130.80;;;63.60;;
52934;SDS011;38802;50.198;19.796;2022-11-20T15:49:13;116.00;;;56.50;;
52934;SDS011;38802;50.198;19.796;2022-11-20T15:51:43;123.50;;;58.40;;
52934;SDS011;38802;50.198;19.796;2022-11-20T15:54:18;120.60;;;58.90;;
52934;SDS011;38802;50.198;19.796;2022-11-20T15:56:49;129.90;;;64.10;;
52934;SDS011;38802;50.198;19.796;2022-11-20T15:59:21;126.60;;;62.80;;
52934;SDS011;38802;50.198;19.796;2022-11-20T16:01:49;120.40;;;60.20;;
52934;SDS011;38802;50.198;19.796;2022-11-20T16:04:17;138.90;;;65.60;;
52934;SDS011;38802;50.198;19.796;2022-11-20T16:06:46;124.90;;;58.60;;
52934;SDS011;38802;50.198;19.796;2022-11-20T16:09:14;138.00;;;63.50;;
52934;SDS011;38802;50.198;19.796;2022-11-20T16:11:42;136.10;;;66.80;;
52934;SDS011;38802;50.198;19.796;2022-11-20T16:14:10;148.50;;;67.20;;
52934;SDS011;38802;50.198;19.796;2022-11-20T16:16:57;133.70;;;61.80;;
52934;SDS011;38802;50.198;19.796;2022-11-20T16:19:25;146.00;;;68.50;;
52934;SDS011;38802;50.198;19.796;2022-11-20T16:21:53;145.00;;;68.20;;
52934;SDS011;38802;50.198;19.796;2022-11-20T16:24:29;142.50;;;69.50;;
52934;SDS011;38802;50.198;19.796;2022-11-20T16:26:59;146.00;;;65.60;;
52934;SDS011;38802;50.198;19.796;2022-11-20T16:29:27;171.20;;;78.60;;